Terminal Aerodrome Forecast
Issued by NWS

Home | Current Version | Previous Version | Text Only | Print | Product List | Glossary On
Versions: 1 2 3 4 5 6 7 8 9 10 11 12 13 14 15 16 17 18 19 20 21 22 23 24 25 26 27 28 29 30 31 32 33 34 35 36 37
000
FTUS41 KBOX 011138
TAFHYA
TAF
KHYA 011138Z 0112/0212 30012G20KT P6SM FEW200
     FM012000 29011KT P6SM BKN110
     FM020000 32007KT P6SM BKN100
     FM020700 02006KT 3SM -SN OVC050
     FM020800 04007KT 1SM -SN OVC050
     FM021100 07011KT 1SM -SN OVC015=

USA.gov is the U.S. government's official web portal to all federal, state and local government web resources and services.